Аэропорт: Нальчик. Нальчик

ICAO: URMN

METAR:
2022-01-28 08:00:00
URMN 280800Z 09001MPS 9999 NSC 01/M04 Q1017 R24/220150 NOSIG RMK QFE726
METAR:
2022-01-28 05:00:00
TAF URMN 280500Z 2806/2815 32003G08MPS 9999 BKN020CB TEMPO 2806/2812 2100 -SHSN BR BKN005 BKN016CB